Palmer Springs, Virginia
Current Conditions -  °F | °C
As of 9:55 PM on Thursday 27 Nov 2014 (Local Time) from KW63 Reporting Station
Clear Clear  
Wind Chill: 31°   Ceiling: Unl
Heat Index: 36°   Visibility: 10mi
Dew Point: 23°   Wind: 6mph
Humidity: 60%   Direction: 310°NW
Pressure: 30.23"   Gusts: NA
Location:  36.658°N, 78.3793°W
Report Text: KW63 280255Z AUTO 31005KT 10SM CLR 02/M05 A3023 RMK AO1
Loading
Personal Weather Stations






























Interactive Weather Map New forecast layout! Learn more

10-Day Weather Forecast

Advertisements
Track Severe Weather on mobile